createdAt,value
2023-03-19T00:00:28.673Z,25.75
2023-03-19T00:02:55.743Z,28.55
2023-03-19T00:05:23.176Z,29.27
2023-03-19T00:07:49.989Z,24.92
2023-03-19T00:10:16.915Z,32.10
2023-03-19T00:12:43.666Z,32.63
2023-03-19T00:15:14.453Z,34.17
2023-03-19T00:17:43.161Z,32.67
2023-03-19T00:20:12.159Z,36.25
2023-03-19T00:22:40.166Z,38.70
2023-03-19T00:25:08.362Z,33.25
2023-03-19T00:27:36.591Z,32.85
2023-03-19T00:30:05.660Z,31.67
2023-03-19T00:32:33.999Z,30.88
2023-03-19T00:35:01.392Z,25.75
2023-03-19T00:37:28.656Z,30.02
2023-03-19T00:39:56.173Z,30.90
2023-03-19T00:42:23.330Z,29.20
2023-03-19T00:44:50.326Z,30.63
2023-03-19T00:47:17.508Z,31.20
2023-03-19T00:49:44.652Z,30.10
2023-03-19T00:52:11.425Z,28.40
2023-03-19T00:54:38.205Z,31.55
2023-03-19T00:57:05.380Z,34.35
2023-03-19T00:59:32.150Z,36.72
2023-03-19T01:01:59.091Z,33.70
2023-03-19T01:04:26.035Z,32.05
2023-03-19T01:06:52.895Z,29.13
2023-03-19T01:09:19.899Z,26.92
2023-03-19T01:11:46.635Z,21.75
2023-03-19T01:14:16.202Z,30.08
2023-03-19T01:16:43.625Z,33.05
2023-03-19T01:19:10.459Z,28.90
2023-03-19T01:21:37.250Z,28.20
2023-03-19T01:24:04.093Z,26.83
2023-03-19T01:26:31.402Z,27.42
2023-03-19T01:28:58.623Z,34.10
2023-03-19T01:31:25.604Z,24.20
2023-03-19T01:33:52.750Z,25.88
2023-03-19T01:36:19.527Z,24.10
2023-03-19T01:38:46.467Z,35.35
2023-03-19T01:41:13.549Z,35.15
2023-03-19T01:43:40.696Z,27.92
2023-03-19T01:46:16.515Z,28.67
2023-03-19T01:48:53.471Z,31.45
2023-03-19T01:51:25.571Z,23.02
2023-03-19T01:53:56.392Z,37.38
2023-03-19T01:56:32.217Z,36.10
2023-03-19T01:59:04.616Z,31.77
2023-03-19T02:01:35.949Z,49.10
2023-03-19T02:04:05.039Z,33.38
2023-03-19T02:06:33.040Z,45.30
2023-03-19T02:08:59.945Z,48.28
2023-03-19T02:11:26.995Z,45.33
2023-03-19T02:13:54.139Z,48.53
2023-03-19T02:16:21.338Z,39.63
2023-03-19T02:18:48.709Z,40.75
2023-03-19T02:21:17.664Z,41.38
2023-03-19T02:24:01.589Z,38.55
2023-03-19T02:26:30.700Z,34.97
2023-03-19T02:28:57.519Z,37.10
2023-03-19T02:31:24.782Z,34.78
2023-03-19T02:34:05.511Z,39.92
2023-03-19T02:36:44.329Z,42.10
2023-03-19T02:39:27.308Z,42.63
2023-03-19T02:41:56.352Z,37.00
2023-03-19T02:44:23.099Z,40.45
2023-03-19T02:46:50.054Z,42.95
2023-03-19T02:49:16.880Z,46.50
2023-03-19T02:51:43.697Z,45.25
2023-03-19T02:54:11.108Z,43.92
2023-03-19T02:56:37.870Z,42.92
2023-03-19T02:59:04.615Z,41.85
2023-03-19T03:01:31.431Z,41.72
2023-03-19T03:03:58.308Z,49.47
2023-03-19T03:06:25.125Z,51.50
2023-03-19T03:08:52.211Z,45.70
2023-03-19T03:11:18.988Z,47.35
2023-03-19T03:13:45.972Z,46.78
2023-03-19T03:16:12.858Z,46.53
2023-03-19T03:18:39.676Z,46.33
2023-03-19T03:21:06.476Z,43.97
2023-03-19T03:23:33.220Z,43.03
2023-03-19T03:26:00.657Z,39.28
2023-03-19T03:28:27.423Z,36.72
2023-03-19T03:31:01.179Z,34.28
2023-03-19T03:33:28.600Z,37.28
2023-03-19T03:35:56.000Z,36.20
2023-03-19T03:38:23.607Z,34.20
2023-03-19T03:40:53.868Z,35.67
2023-03-19T03:43:21.763Z,35.35
2023-03-19T03:45:48.978Z,34.78
2023-03-19T03:48:19.436Z,33.22
2023-03-19T03:50:46.724Z,34.10
2023-03-19T03:53:14.429Z,33.50
2023-03-19T03:55:41.737Z,33.80
2023-03-19T03:58:08.602Z,33.45
2023-03-19T04:00:36.019Z,32.85
2023-03-19T04:03:03.258Z,31.95
2023-03-19T04:05:30.139Z,31.27
2023-03-19T04:07:57.278Z,32.83
2023-03-19T04:10:24.332Z,33.15
2023-03-19T04:12:51.546Z,32.45
2023-03-19T04:15:18.991Z,30.55
2023-03-19T04:17:46.073Z,31.10
2023-03-19T04:20:13.675Z,31.45
2023-03-19T04:22:40.643Z,38.88
2023-03-19T04:25:10.693Z,31.90
2023-03-19T04:27:37.514Z,32.58
2023-03-19T04:30:04.999Z,32.83
2023-03-19T04:32:31.974Z,34.47
2023-03-19T04:34:58.847Z,33.72
2023-03-19T04:37:25.752Z,31.20
2023-03-19T04:39:54.436Z,32.40
2023-03-19T04:42:21.558Z,31.83
2023-03-19T04:44:48.671Z,30.92
2023-03-19T04:47:15.542Z,29.33
2023-03-19T04:49:42.509Z,30.95
2023-03-19T04:52:09.526Z,29.80
2023-03-19T04:54:36.518Z,27.75
2023-03-19T04:57:03.338Z,25.48
2023-03-19T04:59:30.145Z,27.60
2023-03-19T05:01:57.060Z,27.27
2023-03-19T05:04:24.099Z,25.30
2023-03-19T05:06:51.250Z,27.42
2023-03-19T05:09:18.220Z,29.65
2023-03-19T05:11:44.997Z,27.83
2023-03-19T05:14:11.819Z,23.75
2023-03-19T05:16:38.851Z,23.55
2023-03-19T05:19:05.681Z,24.17
2023-03-19T05:21:32.725Z,24.60
2023-03-19T05:23:59.740Z,24.80
2023-03-19T05:26:26.681Z,25.90
2023-03-19T05:28:53.520Z,26.10
2023-03-19T05:31:20.317Z,26.45
2023-03-19T05:33:47.220Z,27.45
2023-03-19T05:36:13.977Z,26.85
2023-03-19T05:38:40.964Z,25.02
2023-03-19T05:41:08.451Z,25.83
2023-03-19T05:43:35.221Z,27.30
2023-03-19T05:46:02.128Z,26.70
2023-03-19T05:48:28.936Z,28.33
2023-03-19T05:50:56.304Z,26.45
2023-03-19T05:53:23.256Z,29.23
2023-03-19T05:55:50.047Z,28.33
2023-03-19T05:58:17.030Z,28.08
2023-03-19T06:00:43.879Z,29.02
2023-03-19T06:03:11.151Z,29.08
2023-03-19T06:05:37.945Z,29.60
2023-03-19T06:08:04.963Z,29.63
2023-03-19T06:10:32.191Z,30.27
2023-03-19T06:12:59.137Z,31.88
2023-03-19T06:15:26.713Z,33.45
2023-03-19T06:17:53.454Z,33.92
2023-03-19T06:20:20.271Z,36.78
2023-03-19T06:22:47.070Z,34.35
2023-03-19T06:25:13.900Z,33.55
2023-03-19T06:27:40.668Z,34.38
2023-03-19T06:30:08.156Z,35.20
2023-03-19T06:32:35.148Z,33.30
2023-03-19T06:35:02.385Z,30.83
2023-03-19T06:37:29.227Z,32.25
2023-03-19T06:39:56.244Z,31.75
2023-03-19T06:42:23.127Z,31.15
2023-03-19T06:44:53.014Z,31.70
2023-03-19T06:47:20.365Z,31.73
2023-03-19T06:49:47.301Z,29.95
2023-03-19T06:52:14.271Z,29.40
2023-03-19T06:54:41.214Z,29.17
2023-03-19T06:57:08.071Z,27.75
2023-03-19T06:59:34.936Z,28.20
2023-03-19T07:02:02.281Z,26.67
2023-03-19T07:04:30.094Z,16.50
2023-03-19T07:06:56.950Z,18.80
2023-03-19T07:09:23.865Z,19.83
2023-03-19T07:11:50.691Z,14.82
2023-03-19T07:14:17.485Z,10.45
2023-03-19T07:16:44.457Z,14.15
2023-03-19T07:19:11.652Z,14.20
2023-03-19T07:21:38.439Z,15.43
2023-03-19T07:24:05.739Z,12.70
2023-03-19T07:26:32.748Z,12.05
2023-03-19T07:28:59.752Z,13.30
2023-03-19T07:31:26.533Z,10.90
2023-03-19T07:33:56.259Z,10.15
2023-03-19T07:36:23.413Z,9.20
2023-03-19T07:38:50.430Z,8.20
2023-03-19T07:41:17.726Z,7.90
2023-03-19T07:43:44.496Z,7.93
2023-03-19T07:46:11.747Z,9.23
2023-03-19T07:48:38.634Z,7.78
2023-03-19T07:51:05.777Z,8.02
2023-03-19T07:53:32.732Z,8.63
2023-03-19T07:55:59.462Z,10.50
2023-03-19T07:58:27.021Z,9.77
2023-03-19T08:00:54.649Z,11.13
2023-03-19T08:03:21.394Z,10.80
2023-03-19T08:05:50.024Z,12.13
2023-03-19T08:08:17.465Z,11.05
2023-03-19T08:10:44.285Z,12.45
2023-03-19T08:13:11.140Z,13.95
2023-03-19T08:15:37.889Z,13.68
2023-03-19T08:18:05.285Z,15.55
2023-03-19T08:20:32.760Z,16.35
2023-03-19T08:22:59.746Z,16.88
2023-03-19T08:25:27.631Z,16.75
2023-03-19T08:27:54.416Z,17.15
2023-03-19T08:30:21.353Z,16.58
2023-03-19T08:32:49.343Z,18.42
2023-03-19T08:35:16.834Z,19.02
2023-03-19T08:37:43.658Z,18.10
2023-03-19T08:40:11.171Z,17.05
2023-03-19T08:42:44.997Z,17.25
2023-03-19T08:45:14.012Z,17.00
2023-03-19T08:47:41.550Z,16.30
2023-03-19T08:50:09.044Z,13.52
2023-03-19T08:52:35.962Z,13.85
2023-03-19T08:55:03.561Z,12.65
2023-03-19T08:57:32.170Z,12.13
2023-03-19T08:59:59.204Z,12.50
2023-03-19T09:02:26.110Z,11.90
2023-03-19T09:04:53.190Z,13.25
2023-03-19T09:07:20.109Z,11.38
2023-03-19T09:09:46.967Z,11.10
2023-03-19T09:12:15.683Z,12.23
2023-03-19T09:14:43.295Z,11.05
2023-03-19T09:17:11.003Z,11.13
2023-03-19T09:19:37.995Z,10.60
2023-03-19T09:22:05.361Z,11.45
2023-03-19T09:24:32.221Z,11.82
2023-03-19T09:26:59.125Z,10.80
2023-03-19T09:29:26.184Z,10.88
2023-03-19T09:31:52.927Z,10.55
2023-03-19T09:34:19.755Z,9.85
2023-03-19T09:36:46.596Z,8.60
2023-03-19T09:39:13.422Z,9.45
2023-03-19T09:42:00.871Z,9.07
2023-03-19T09:44:39.573Z,9.65
2023-03-19T09:47:31.352Z,8.77
2023-03-19T09:50:16.455Z,8.55
2023-03-19T09:52:58.676Z,8.98
2023-03-19T09:55:45.094Z,8.95
2023-03-19T10:01:04.133Z,15.50
2023-03-19T10:03:55.613Z,10.93
2023-03-19T10:06:29.423Z,9.20
2023-03-19T10:09:34.630Z,8.93
2023-03-19T10:12:27.826Z,8.95
2023-03-19T10:14:57.423Z,7.50
2023-03-19T10:17:58.441Z,7.85
2023-03-19T10:20:37.051Z,8.73
2023-03-19T10:23:32.138Z,9.02
2023-03-19T10:26:00.507Z,9.68
2023-03-19T10:28:29.341Z,8.32
2023-03-19T10:31:10.664Z,8.25
2023-03-19T10:34:18.889Z,8.70
2023-03-19T10:36:45.769Z,7.65
2023-03-19T10:39:17.052Z,8.60
2023-03-19T10:42:05.467Z,8.55
2023-03-19T10:44:36.958Z,8.27
2023-03-19T10:47:15.629Z,8.00
2023-03-19T10:49:43.291Z,8.77
2023-03-19T10:52:34.993Z,7.90
2023-03-19T10:55:25.983Z,8.40
2023-03-19T10:58:03.286Z,8.40
2023-03-19T11:00:33.427Z,8.65
2023-03-19T11:03:04.646Z,8.60
2023-03-19T11:05:34.311Z,9.27
2023-03-19T11:08:34.554Z,8.77
2023-03-19T11:11:02.552Z,9.00
2023-03-19T11:13:29.445Z,9.05
2023-03-19T11:16:00.326Z,8.38
2023-03-19T11:18:40.168Z,8.88
2023-03-19T11:21:22.024Z,9.15
2023-03-19T11:23:56.353Z,9.13
2023-03-19T11:26:24.590Z,8.68
2023-03-19T11:28:52.212Z,9.20
2023-03-19T11:31:29.031Z,9.68
2023-03-19T11:34:07.896Z,9.57
2023-03-19T11:36:55.005Z,8.75
2023-03-19T11:39:48.055Z,8.57
2023-03-19T11:42:32.699Z,8.60
2023-03-19T11:45:31.977Z,8.50
2023-03-19T11:48:20.296Z,8.48
2023-03-19T11:50:59.196Z,9.85
2023-03-19T11:53:36.002Z,9.15
2023-03-19T11:56:31.164Z,8.68
2023-03-19T11:59:47.698Z,7.97
2023-03-19T12:02:52.557Z,8.43
2023-03-19T12:06:02.357Z,8.48
2023-03-19T12:09:13.304Z,8.80
2023-03-19T12:11:40.114Z,9.82
2023-03-19T12:15:00.837Z,10.05
2023-03-19T12:17:30.946Z,9.80
2023-03-19T12:20:20.431Z,9.30
2023-03-19T12:22:52.974Z,9.13
2023-03-19T12:25:38.437Z,9.52
2023-03-19T12:28:26.560Z,9.30
2023-03-19T12:31:18.992Z,9.23
2023-03-19T12:34:12.180Z,8.43
2023-03-19T12:37:21.477Z,8.10
2023-03-19T12:40:02.806Z,8.23
2023-03-19T12:42:37.605Z,7.90
2023-03-19T12:45:15.277Z,8.98
2023-03-19T12:47:45.054Z,8.65
2023-03-19T12:50:15.791Z,9.80
2023-03-19T12:52:46.895Z,9.40
2023-03-19T12:55:48.163Z,8.60
2023-03-19T12:58:24.362Z,8.52
2023-03-19T13:00:57.789Z,8.52
2023-03-19T13:04:03.536Z,8.57
2023-03-19T13:06:37.136Z,9.40
2023-03-19T13:09:30.052Z,9.10
2023-03-19T13:12:13.718Z,8.77
2023-03-19T13:15:05.672Z,8.75
2023-03-19T13:17:57.866Z,9.98
2023-03-19T13:20:29.240Z,9.38
2023-03-19T13:23:01.338Z,9.57
2023-03-19T13:25:42.710Z,9.43
2023-03-19T13:28:20.674Z,8.90
2023-03-19T13:31:04.192Z,9.80
2023-03-19T13:33:32.649Z,9.50
2023-03-19T13:36:05.258Z,8.93
2023-03-19T13:38:46.195Z,9.50
2023-03-19T13:41:42.576Z,8.50
2023-03-19T13:44:24.689Z,9.63
2023-03-19T13:46:51.558Z,9.57
2023-03-19T13:49:36.704Z,9.35
2023-03-19T13:52:26.344Z,9.85
2023-03-19T13:54:57.887Z,10.32
2023-03-19T13:57:35.727Z,10.88
2023-03-19T14:00:41.014Z,10.10
2023-03-19T14:03:22.985Z,10.50
2023-03-19T14:05:52.814Z,10.45
2023-03-19T14:08:26.086Z,10.52
2023-03-19T14:10:56.703Z,9.90
2023-03-19T14:13:32.974Z,9.57
2023-03-19T14:16:31.443Z,8.77
2023-03-19T14:19:02.397Z,8.85
2023-03-19T14:21:35.882Z,9.05
2023-03-19T14:24:58.646Z,10.15
2023-03-19T14:27:53.125Z,10.32
2023-03-19T14:30:46.826Z,10.30
2023-03-19T14:33:25.463Z,10.02
2023-03-19T14:35:53.105Z,10.82
2023-03-19T14:38:40.137Z,10.60
2023-03-19T14:41:12.470Z,10.85
2023-03-19T14:43:56.044Z,10.88
2023-03-19T14:46:33.463Z,11.02
2023-03-19T14:49:45.281Z,9.70
2023-03-19T14:52:26.879Z,9.10
2023-03-19T14:54:59.185Z,9.02
2023-03-19T14:57:34.466Z,9.48
2023-03-19T15:00:06.035Z,9.13
2023-03-19T15:02:50.295Z,10.10
2023-03-19T15:05:36.925Z,9.32
2023-03-19T15:08:07.021Z,10.18
2023-03-19T15:10:53.472Z,10.05
2023-03-19T15:16:25.105Z,10.05
2023-03-19T15:18:52.304Z,9.73
2023-03-19T15:21:23.351Z,9.93
2023-03-19T15:23:50.501Z,8.98
2023-03-19T15:26:30.731Z,10.93
2023-03-19T15:28:58.116Z,9.00
2023-03-19T15:31:54.007Z,10.23
2023-03-19T15:34:30.053Z,10.50
2023-03-19T15:37:15.893Z,9.75
2023-03-19T15:39:52.824Z,10.73
2023-03-19T15:42:21.918Z,9.63
2023-03-19T15:45:12.406Z,10.63
2023-03-19T15:47:51.661Z,9.80
2023-03-19T15:50:27.918Z,10.98
2023-03-19T15:52:59.331Z,12.48
2023-03-19T15:55:26.495Z,13.32
2023-03-19T15:58:00.308Z,11.68
2023-03-19T16:00:27.167Z,11.43
2023-03-19T16:02:54.025Z,11.90
2023-03-19T16:05:29.280Z,13.45
2023-03-19T16:08:01.123Z,13.50
2023-03-19T16:10:42.675Z,12.55
2023-03-19T16:13:37.880Z,12.63
2023-03-19T16:16:14.789Z,13.02
2023-03-19T16:18:56.537Z,11.73
2023-03-19T16:21:33.423Z,12.32
2023-03-19T16:24:32.639Z,12.13
2023-03-19T16:27:03.144Z,12.02
2023-03-19T16:29:43.286Z,11.23
2023-03-19T16:32:19.130Z,11.38
2023-03-19T16:34:54.845Z,12.45
2023-03-19T16:37:48.888Z,11.98
2023-03-19T16:40:40.004Z,13.15
2023-03-19T16:43:35.853Z,13.48
2023-03-19T16:46:12.511Z,14.43
2023-03-19T16:48:40.152Z,14.23
2023-03-19T16:51:18.605Z,14.50
2023-03-19T16:53:47.134Z,14.73
2023-03-19T16:56:15.611Z,14.05
2023-03-19T16:58:46.329Z,15.60
2023-03-19T17:01:16.536Z,14.48
2023-03-19T17:03:43.776Z,13.35
2023-03-19T17:06:12.120Z,12.77
2023-03-19T17:08:40.139Z,12.40
2023-03-19T17:11:12.526Z,12.10
2023-03-19T17:13:43.682Z,12.38
2023-03-19T17:16:10.762Z,13.90
2023-03-19T17:18:41.999Z,12.57
2023-03-19T17:21:13.846Z,13.38
2023-03-19T17:23:40.924Z,12.70
2023-03-19T17:26:28.642Z,12.85
2023-03-19T17:28:56.553Z,12.82
2023-03-19T17:31:28.744Z,13.20
2023-03-19T17:34:26.534Z,13.98
2023-03-19T17:36:56.146Z,13.00
2023-03-19T17:39:24.185Z,13.05
2023-03-19T17:41:51.624Z,11.63
2023-03-19T17:44:18.424Z,12.13
2023-03-19T17:46:49.848Z,12.70
2023-03-19T17:49:29.101Z,12.30
2023-03-19T17:51:56.841Z,11.98
2023-03-19T17:54:25.921Z,12.38
2023-03-19T17:56:53.979Z,12.02
2023-03-19T17:59:20.920Z,12.23
2023-03-19T18:01:47.770Z,12.77
2023-03-19T18:04:17.415Z,12.05
2023-03-19T18:06:54.306Z,12.68
2023-03-19T18:09:28.477Z,12.68
2023-03-19T18:11:55.570Z,12.57
2023-03-19T18:14:25.138Z,12.13
2023-03-19T18:16:52.140Z,11.88
2023-03-19T18:19:33.080Z,12.40
2023-03-19T18:21:59.854Z,11.35
2023-03-19T18:24:26.864Z,12.68
2023-03-19T18:26:53.702Z,12.57
2023-03-19T18:29:20.541Z,12.52
2023-03-19T18:31:50.066Z,11.82
2023-03-19T18:34:17.718Z,13.18
2023-03-19T18:36:44.705Z,12.63
2023-03-19T18:39:15.841Z,15.05
2023-03-19T18:41:43.539Z,18.92
2023-03-19T18:44:12.247Z,20.70
2023-03-19T18:46:40.321Z,20.77
2023-03-19T18:49:27.229Z,21.45
2023-03-19T18:52:02.483Z,23.75
2023-03-19T18:57:00.124Z,30.13
2023-03-19T18:59:33.235Z,25.58
2023-03-19T19:02:22.379Z,26.10
2023-03-19T19:04:49.326Z,27.33
2023-03-19T19:07:17.336Z,27.55
2023-03-19T19:09:44.196Z,28.33
2023-03-19T19:12:14.718Z,28.55
2023-03-19T19:14:43.051Z,28.73
2023-03-19T19:17:24.052Z,28.83
2023-03-19T19:19:51.077Z,28.20
2023-03-19T19:22:19.196Z,28.92
2023-03-19T19:24:46.468Z,30.25
2023-03-19T19:27:26.784Z,31.77
2023-03-19T19:29:53.661Z,26.15
2023-03-19T19:32:26.460Z,28.33
2023-03-19T19:34:53.942Z,27.05
2023-03-19T19:37:23.199Z,27.15
2023-03-19T19:39:50.784Z,28.27
2023-03-19T19:42:19.997Z,27.45
2023-03-19T19:44:51.817Z,26.80
2023-03-19T19:47:18.797Z,27.67
2023-03-19T19:49:45.951Z,27.35
2023-03-19T19:52:14.904Z,27.77
2023-03-19T19:54:42.972Z,27.40
2023-03-19T19:57:25.083Z,27.83
2023-03-19T19:59:53.111Z,27.83
2023-03-19T20:02:31.163Z,28.70
2023-03-19T20:04:58.651Z,31.98
2023-03-19T20:07:25.745Z,33.75
2023-03-19T20:09:52.823Z,33.33
2023-03-19T20:12:22.147Z,31.98
2023-03-19T20:14:52.792Z,31.67
2023-03-19T20:17:23.536Z,30.33
2023-03-19T20:19:50.951Z,30.33
2023-03-19T20:22:20.323Z,30.55
2023-03-19T20:24:50.746Z,27.42
2023-03-19T20:27:20.947Z,27.42
2023-03-19T20:29:47.854Z,26.15
2023-03-19T20:32:33.054Z,26.25
2023-03-19T20:35:03.052Z,26.80
2023-03-19T20:37:30.761Z,27.52
2023-03-19T20:39:57.598Z,27.40
2023-03-19T20:42:26.661Z,25.63
2023-03-19T20:44:58.231Z,26.10
2023-03-19T20:47:25.996Z,25.30
2023-03-19T20:49:53.460Z,26.75
2023-03-19T20:52:20.672Z,26.83
2023-03-19T20:54:48.282Z,26.55
2023-03-19T20:57:31.500Z,27.20
2023-03-19T21:00:07.010Z,25.73
2023-03-19T21:02:33.862Z,24.65
2023-03-19T21:05:00.731Z,27.08
2023-03-19T21:07:33.582Z,26.35
2023-03-19T21:10:03.586Z,25.15
2023-03-19T21:12:32.886Z,27.15
2023-03-19T21:15:01.259Z,27.05
2023-03-19T21:17:28.925Z,27.85
2023-03-19T21:19:56.762Z,25.35
2023-03-19T21:22:30.777Z,25.65
2023-03-19T21:25:05.829Z,25.58
2023-03-19T21:27:36.819Z,25.27
2023-03-19T21:30:05.894Z,26.70
2023-03-19T21:32:32.990Z,25.35
2023-03-19T21:34:59.914Z,26.88
2023-03-19T21:37:26.748Z,25.65
2023-03-19T21:39:53.527Z,26.63
2023-03-19T21:42:23.800Z,27.63
2023-03-19T21:44:57.113Z,28.13
2023-03-19T21:47:25.860Z,27.00
2023-03-19T21:49:52.666Z,26.55
2023-03-19T21:52:22.012Z,26.15
2023-03-19T21:54:49.129Z,26.30
2023-03-19T21:57:17.286Z,25.20
2023-03-19T21:59:45.302Z,25.10
2023-03-19T22:02:38.280Z,25.38
2023-03-19T22:05:23.086Z,25.17
2023-03-19T22:07:50.410Z,24.17
2023-03-19T22:10:17.790Z,24.92
2023-03-19T22:12:45.422Z,23.63
2023-03-19T22:15:37.614Z,22.73
2023-03-19T22:18:06.914Z,23.08
2023-03-19T22:20:33.761Z,21.55
2023-03-19T22:23:00.810Z,22.42
2023-03-19T22:25:32.252Z,22.25
2023-03-19T22:27:59.659Z,21.38
2023-03-19T22:30:30.830Z,21.85
2023-03-19T22:32:58.367Z,21.98
2023-03-19T22:35:25.394Z,21.48
2023-03-19T22:37:52.114Z,20.85
2023-03-19T22:40:19.562Z,21.65
2023-03-19T22:42:48.517Z,20.73
2023-03-19T22:45:20.950Z,20.45
2023-03-19T22:47:48.202Z,19.00
2023-03-19T22:50:19.352Z,20.23
2023-03-19T22:52:46.227Z,20.15
2023-03-19T22:55:13.144Z,19.83
2023-03-19T22:57:40.055Z,19.02
2023-03-19T23:00:13.832Z,23.60
2023-03-19T23:02:41.619Z,27.48
2023-03-19T23:05:31.895Z,29.13
2023-03-19T23:07:59.015Z,34.60
2023-03-19T23:10:28.669Z,36.97
2023-03-19T23:12:56.469Z,36.53
2023-03-19T23:15:26.931Z,38.08
2023-03-19T23:17:57.080Z,37.90
2023-03-19T23:20:26.020Z,55.25
2023-03-19T23:22:53.603Z,52.15
2023-03-19T23:25:24.916Z,43.97
2023-03-19T23:27:52.897Z,34.65
2023-03-19T23:30:31.618Z,44.75
2023-03-19T23:33:00.643Z,43.35
2023-03-19T23:35:29.675Z,36.90
2023-03-19T23:37:57.611Z,35.83
2023-03-19T23:40:31.358Z,36.95
2023-03-19T23:42:59.386Z,37.75
2023-03-19T23:45:31.406Z,40.40
2023-03-19T23:48:00.451Z,29.67
2023-03-19T23:50:27.316Z,23.98
2023-03-19T23:52:54.197Z,24.52
2023-03-19T23:55:22.441Z,31.85
2023-03-19T23:57:49.637Z,30.50
